createdAt,value
2022-09-20T00:02:52.471Z,51.1
2022-09-20T00:07:52.550Z,51.1
2022-09-20T00:12:52.563Z,51.1
2022-09-20T00:17:52.888Z,51
2022-09-20T00:22:52.781Z,51
2022-09-20T00:27:52.821Z,51
2022-09-20T00:32:52.846Z,51
2022-09-20T00:37:52.935Z,51
2022-09-20T00:42:52.816Z,50.9
2022-09-20T00:47:52.986Z,50.9
2022-09-20T00:52:52.813Z,51
2022-09-20T00:57:52.794Z,50.9
2022-09-20T01:02:52.770Z,50.8
2022-09-20T01:07:52.783Z,50.8
2022-09-20T01:12:52.930Z,50.8
2022-09-20T01:17:52.840Z,50.6
2022-09-20T01:22:52.830Z,50.8
2022-09-20T01:27:52.918Z,50.7
2022-09-20T01:32:53.221Z,50.6
2022-09-20T01:37:52.941Z,50.6
2022-09-20T01:42:53.017Z,50.6
2022-09-20T01:47:52.934Z,50.5
2022-09-20T01:52:52.927Z,50.4
2022-09-20T01:57:52.891Z,50.4
2022-09-20T02:02:53.058Z,50.3
2022-09-20T02:07:53.049Z,50.3
2022-09-20T02:12:52.899Z,50.3
2022-09-20T02:17:53.132Z,50.5
2022-09-20T02:22:52.960Z,50.6
2022-09-20T02:27:52.941Z,50.7
2022-09-20T02:32:53.003Z,50.8
2022-09-20T02:37:52.966Z,50.9
2022-09-20T02:42:53.152Z,51.1
2022-09-20T02:47:53.343Z,51.1
2022-09-20T02:52:53.084Z,51.1
2022-09-20T02:57:53.164Z,51.3
2022-09-20T03:02:53.391Z,51.1
2022-09-20T03:07:53.285Z,51.1
2022-09-20T03:12:53.261Z,51.1
2022-09-20T03:17:53.280Z,51.1
2022-09-20T03:22:53.282Z,51.1
2022-09-20T03:27:53.560Z,51
2022-09-20T03:32:53.561Z,51
2022-09-20T03:37:53.450Z,51.1
2022-09-20T03:42:53.572Z,51.1
2022-09-20T03:47:53.523Z,51.2
2022-09-20T03:52:53.880Z,51.3
2022-09-20T03:57:53.905Z,51.3
2022-09-20T04:02:53.726Z,51.7
2022-09-20T04:07:53.668Z,51.9
2022-09-20T04:12:53.666Z,52.1
2022-09-20T04:17:53.666Z,52.2
2022-09-20T04:22:53.653Z,52.5
2022-09-20T04:27:53.666Z,52.6
2022-09-20T04:32:53.685Z,52.8
2022-09-20T04:37:53.646Z,52.9
2022-09-20T04:42:53.643Z,53
2022-09-20T04:47:53.726Z,52.9
2022-09-20T04:52:53.722Z,52.9
2022-09-20T04:57:53.729Z,53
2022-09-20T05:02:53.713Z,52.8
2022-09-20T05:07:54.103Z,52.7
2022-09-20T05:12:53.749Z,52.7
2022-09-20T05:17:54.037Z,52.8
2022-09-20T05:22:53.971Z,52.5
2022-09-20T05:27:54.053Z,52.6
2022-09-20T05:32:53.932Z,52.4
2022-09-20T05:37:53.844Z,52.4
2022-09-20T05:42:54.046Z,52.5
2022-09-20T05:47:54.163Z,52.7
2022-09-20T05:52:54.153Z,52.7
2022-09-20T05:57:54.208Z,52.8
2022-09-20T06:02:54.402Z,52.8
2022-09-20T06:07:54.497Z,52.9
2022-09-20T06:12:54.596Z,52.7
2022-09-20T06:17:54.520Z,52.7
2022-09-20T06:22:54.542Z,52.7
2022-09-20T06:27:54.519Z,52.7
2022-09-20T06:32:54.425Z,52.7
2022-09-20T06:37:54.769Z,52.9
2022-09-20T06:42:54.635Z,53
2022-09-20T06:47:54.741Z,53
2022-09-20T06:52:54.942Z,52.8
2022-09-20T06:57:55.134Z,53
2022-09-20T07:02:55.078Z,53
2022-09-20T07:07:55.190Z,52.8
2022-09-20T07:12:55.084Z,53
2022-09-20T07:17:55.326Z,53
2022-09-20T07:22:55.486Z,53.2
2022-09-20T07:27:55.711Z,53.3
2022-09-20T07:32:55.532Z,53.2
2022-09-20T07:37:55.720Z,53.4
2022-09-20T07:42:56.265Z,54.2
2022-09-20T07:47:55.627Z,54.3
2022-09-20T07:52:55.611Z,54.5
2022-09-20T07:57:55.605Z,54.9
2022-09-20T08:02:55.586Z,54.8
2022-09-20T08:07:55.601Z,54.3
2022-09-20T08:17:55.653Z,54.5
2022-09-20T08:23:12.911Z,54.7
2022-09-20T08:27:55.932Z,54.6
2022-09-20T08:32:55.941Z,54.1
2022-09-20T08:37:56.212Z,54.8
2022-09-20T08:42:55.793Z,54.5
2022-09-20T08:47:58.604Z,54.5
2022-09-20T08:53:00.013Z,54.5
2022-09-20T08:57:55.935Z,54.2
2022-09-20T09:02:56.181Z,54
2022-09-20T09:07:56.312Z,54.2
2022-09-20T09:12:56.169Z,54.2
2022-09-20T09:17:56.185Z,54.4
2022-09-20T09:22:56.200Z,53.7
2022-09-20T09:27:56.648Z,53.6
2022-09-20T09:32:56.568Z,53
2022-09-20T09:37:56.773Z,52.1
2022-09-20T09:42:56.510Z,51.6
2022-09-20T09:47:56.691Z,50.9
2022-09-20T09:52:56.811Z,50
2022-09-20T09:57:56.700Z,49.1
2022-09-20T10:02:56.905Z,49.1
2022-09-20T10:07:56.655Z,49
2022-09-20T10:12:56.657Z,49.3
2022-09-20T10:17:56.642Z,49
2022-09-20T10:23:26.738Z,49
2022-09-20T10:27:56.821Z,49.1
2022-09-20T10:32:57.047Z,49.7
2022-09-20T10:37:57.335Z,50.4
2022-09-20T10:42:56.894Z,49.8
2022-09-20T10:47:56.875Z,50.1
2022-09-20T10:52:57.028Z,51
2022-09-20T10:57:57.008Z,50
2022-09-20T11:02:57.031Z,47.7
2022-09-20T11:07:57.035Z,47.5
2022-09-20T11:12:57.294Z,48.1
2022-09-20T11:17:57.293Z,47.5
2022-09-20T11:22:57.358Z,47.3
2022-09-20T11:27:57.414Z,47.8
2022-09-20T11:32:57.252Z,48.7
2022-09-20T11:37:57.569Z,48.5
2022-09-20T11:42:57.502Z,49
2022-09-20T11:47:57.617Z,49.4
2022-09-20T11:52:57.538Z,50.3
2022-09-20T11:57:57.420Z,51.4
2022-09-20T12:02:57.470Z,51.9
2022-09-20T12:07:57.439Z,51.8
2022-09-20T12:12:57.681Z,51.9
2022-09-20T12:17:57.752Z,51.7
2022-09-20T12:22:57.856Z,51.8
2022-09-20T12:27:57.669Z,50.6
2022-09-20T12:32:58.149Z,49.8
2022-09-20T12:37:58.007Z,50.1
2022-09-20T12:42:57.868Z,48.3
2022-09-20T12:47:58.017Z,48.8
2022-09-20T12:52:58.321Z,48.2
2022-09-20T12:57:58.287Z,47.9
2022-09-20T13:02:58.196Z,46.3
2022-09-20T13:07:58.210Z,45.5
2022-09-20T13:12:58.537Z,45.7
2022-09-20T13:17:58.623Z,46.1
2022-09-20T13:23:00.382Z,46.1
2022-09-20T13:27:58.525Z,46.3
2022-09-20T13:32:58.911Z,46.4
2022-09-20T13:37:58.874Z,46.6
2022-09-20T13:43:19.840Z,46.3
2022-09-20T13:47:59.553Z,46.7
2022-09-20T13:52:59.394Z,47.2
2022-09-20T13:57:59.328Z,47.6
2022-09-20T14:02:59.395Z,47.5
2022-09-20T14:07:59.435Z,47
2022-09-20T14:12:59.971Z,45.8
2022-09-20T14:17:59.928Z,45.5
2022-09-20T14:22:59.509Z,45
2022-09-20T14:27:59.706Z,45.3
2022-09-20T14:32:59.593Z,44.6
2022-09-20T14:38:00.013Z,43.5
2022-09-20T14:42:59.859Z,42.4
2022-09-20T14:48:00.125Z,42.1
2022-09-20T14:53:00.252Z,42.2
2022-09-20T14:58:00.075Z,41.9
2022-09-20T15:03:00.337Z,40.6
2022-09-20T15:08:00.443Z,38.8
2022-09-20T15:13:00.700Z,39.2
2022-09-20T15:18:00.428Z,40.5
2022-09-20T15:23:00.739Z,41.2
2022-09-20T15:28:00.939Z,41.5
2022-09-20T15:33:03.121Z,42
2022-09-20T15:38:01.229Z,42.5
2022-09-20T15:43:01.463Z,42.9
2022-09-20T15:48:01.402Z,43.2
2022-09-20T15:53:01.857Z,43.2
2022-09-20T15:58:01.445Z,44.3
2022-09-20T16:03:01.663Z,44.5
2022-09-20T16:08:02.095Z,45
2022-09-20T16:13:01.820Z,45.1
2022-09-20T16:18:02.096Z,45.7
2022-09-20T16:23:01.750Z,45.2
2022-09-20T16:28:02.005Z,45
2022-09-20T16:33:02.400Z,45.5
2022-09-20T16:38:02.705Z,45.8
2022-09-20T16:43:02.456Z,45.8
2022-09-20T16:48:05.348Z,45.9
2022-09-20T16:53:02.958Z,46.1
2022-09-20T16:58:02.529Z,46.6
2022-09-20T17:03:03.180Z,47.2
2022-09-20T17:08:03.253Z,47.2
2022-09-20T17:13:03.397Z,47.1
2022-09-20T17:18:03.353Z,46.7
2022-09-20T17:23:04.223Z,47.1
2022-09-20T17:28:04.847Z,47.2
2022-09-20T17:33:04.802Z,47.3
2022-09-20T17:38:05.017Z,47.6
2022-09-20T17:43:05.882Z,47.6
2022-09-20T17:48:05.623Z,47.8
2022-09-20T17:53:05.591Z,48
2022-09-20T17:58:05.598Z,47.9
2022-09-20T18:03:05.297Z,47.6
2022-09-20T18:08:05.747Z,47.5
2022-09-20T18:13:05.478Z,47.7
2022-09-20T18:18:05.296Z,47.6
2022-09-20T18:23:05.799Z,47.6
2022-09-20T18:28:05.801Z,47.7
2022-09-20T18:33:06.145Z,47.7
2022-09-20T18:38:07.393Z,47.9
2022-09-20T18:43:07.216Z,47.8
2022-09-20T18:48:07.119Z,47.8
2022-09-20T18:53:07.021Z,47.8
2022-09-20T18:58:07.038Z,47.7
2022-09-20T19:03:10.234Z,47.5
2022-09-20T19:08:08.278Z,47
2022-09-20T19:13:08.374Z,46
2022-09-20T19:18:08.663Z,49
2022-09-20T19:23:09.311Z,52.1
2022-09-20T19:28:09.628Z,54.4
2022-09-20T19:33:09.394Z,55.7
2022-09-20T19:38:09.542Z,57.1
2022-09-20T19:43:10.145Z,58.1
2022-09-20T19:48:10.373Z,59.4
2022-09-20T19:53:09.987Z,60.4
2022-09-20T19:58:11.335Z,61.7
2022-09-20T20:03:11.209Z,62.6
2022-09-20T20:08:12.935Z,63.9
2022-09-20T20:13:12.112Z,65
2022-09-20T20:18:16.444Z,65.7
2022-09-20T20:23:13.025Z,66.2
2022-09-20T20:28:13.442Z,67.5
2022-09-20T20:33:13.115Z,68.3
2022-09-20T20:38:13.327Z,69.3
2022-09-20T20:43:13.406Z,70.4
2022-09-20T20:48:13.955Z,71.4
2022-09-20T20:53:15.316Z,72.3
2022-09-20T20:58:15.122Z,72.6
2022-09-20T21:03:15.923Z,73.7
2022-09-20T21:08:15.943Z,74.6
2022-09-20T21:13:16.538Z,75.1
2022-09-20T21:18:16.452Z,76.3
2022-09-20T21:26:44.797Z,78
2022-09-20T21:31:44.772Z,78.9
2022-09-20T21:36:44.941Z,79.7
2022-09-20T21:41:44.754Z,81.6
2022-09-20T21:46:44.707Z,82.6
2022-09-20T21:51:44.708Z,83.9
2022-09-20T21:56:44.713Z,84.4
2022-09-20T22:01:44.793Z,85.2
2022-09-20T22:06:44.704Z,86.1
2022-09-20T22:11:44.750Z,86.9
2022-09-20T22:16:44.687Z,87.9
2022-09-20T22:21:44.703Z,88.8
2022-09-20T22:26:44.728Z,89.9
2022-09-20T22:31:44.736Z,90.2
2022-09-20T22:36:44.683Z,90.5
2022-09-20T22:41:44.712Z,90.4
2022-09-20T22:46:44.713Z,90.4
2022-09-20T22:51:44.700Z,90.4
2022-09-20T22:56:44.688Z,90.5
2022-09-20T23:01:44.920Z,91.1
2022-09-20T23:06:44.719Z,91.3
2022-09-20T23:11:44.685Z,91.5
2022-09-20T23:16:44.773Z,92.1
2022-09-20T23:21:44.675Z,92
2022-09-20T23:26:44.702Z,92.2
2022-09-20T23:31:46.301Z,92.3
2022-09-20T23:36:44.666Z,92.3
2022-09-20T23:41:48.542Z,92.8
2022-09-20T23:46:44.700Z,93.6
2022-09-20T23:51:44.673Z,93.9
2022-09-20T23:56:44.678Z,94.5
